Hlavní strana
METAR-TAF:

METAR-TAF

Letiště :

Niamey, Niger

zeměpisná šířka: 13-29N, zeměpisná délka: 002-10E, výška: 223 m

Aktuální stav počasí

Zpráva byla vytvořena před 53 minutami, v 03:00 UTC
Východní vítr 8 kt
Teplota 20°C
Vlhkost vzduchu 17%
Tlak 1013 hPa
Viditelnost: 4500 m
rozsáhlý prach

METAR: DRRN 230300Z 08008KT 4500 DU NSC 20/M06 Q1013 NOSIG

Čas: 04:53 (03:53 UTC)

Předpověď počasí

Zpráva byla vytvořena před 4 hodinami a 53 minutami, v 23:00 UTC
Předpověď platná od 23 v 00 UTC do 24 v 06 UTC
Východoseverovýchodní vítr 8 kt
Viditelnost: 6000 m
Dočasný
od 23 v 06 UTC do 23 v 08 UTC
Viditelnost: 3500 m
rozsáhlý prach
Dočasný
od 23 v 08 UTC do 23 v 13 UTC
Východní vítr 20 kt
Viditelnost: 2500 m
zvířený prach

TAF: DRRN 222300Z 2300/2406 06008KT 6000 NSC TEMPO 2306/2308 3500 DU TEMPO 2308/2313 08020KT 2500 BLDU

Stav a předpovědi počasí z více než 4 000 letišť (zprávy METAR a TAF).

Červené a žluté tečky na mapě představují dostupné meteorologické stanice.

Když kurzor umístíte na tečku, zobrazí se název stanice.

Pak kliknutím zobrazíte stav a předpověď počasí.

Chcete-li změnit mapu, kliknutím na zelené tlačítko se znaménkem +mapu přiblížíte, kliknutím na zelené tlačítko se znaménkem – mapu oddálíte a kliknutím na zelené šipky přejdete na sousední mapy.


METAR-TAF: